KLUL/LUL METAR and TAF weather

Enter ICAO airport designator
Station Type Date Time Source
KLUL METAR 2020/06/03 22:35 UTC NOAA

KLUL 032235Z AUTO 00000KT 10SM -RA OVC110 22/21 A2997 RMK A02 T02190210


Station Type Date Time Source
KLUL Decoded METAR 2020/06/03 22:35 UTC NOAA

Station name not available
Jun 03, 2020 - 06:35 PM EDT / 2020.06.03 2235 UTC
Wind: Calm:0
Visibility: 10 mile(s):0
Sky conditions: overcast
Weather: light rain
Temperature: 71.4 F (21.9 C)
Dew Point: 69.8 F (21.0 C)
Relative Humidity: 94%
Pressure (altimeter): 29.97 in. Hg (1014 hPa)
ob: KLUL 032235Z AUTO 00000KT 10SM -RA OVC110 22/21 A2997 RMK A02 T02190210
cycle: 22

Station Type Date Time Source
KLUL TAF UTC NOAA

Error!

Example: see airport list